sensor_id;sensor_type;location;lat;lon;timestamp;temperature;humidity
65038;DHT22;51605;47.040;15.294;2024-02-15T00:00:40;20.80;52.10
65038;DHT22;51605;47.040;15.294;2024-02-15T00:03:06;20.80;52.20
65038;DHT22;51605;47.040;15.294;2024-02-15T00:05:39;20.80;52.20
65038;DHT22;51605;47.040;15.294;2024-02-15T00:08:05;20.80;52.10
65038;DHT22;51605;47.040;15.294;2024-02-15T00:10:31;20.80;52.10
65038;DHT22;51605;47.040;15.294;2024-02-15T00:12:58;20.80;52.10
65038;DHT22;51605;47.040;15.294;2024-02-15T00:15:24;20.80;52.10
65038;DHT22;51605;47.040;15.294;2024-02-15T00:17:50;20.80;52.10
65038;DHT22;51605;47.040;15.294;2024-02-15T00:20:17;20.80;52.10
65038;DHT22;51605;47.040;15.294;2024-02-15T00:22:43;20.80;52.10
65038;DHT22;51605;47.040;15.294;2024-02-15T00:25:09;20.80;52.10
65038;DHT22;51605;47.040;15.294;2024-02-15T00:27:36;20.80;52.10
65038;DHT22;51605;47.040;15.294;2024-02-15T00:30:03;20.80;52.10
65038;DHT22;51605;47.040;15.294;2024-02-15T00:32:35;20.80;52.10
65038;DHT22;51605;47.040;15.294;2024-02-15T00:35:02;20.80;52.20
65038;DHT22;51605;47.040;15.294;2024-02-15T00:37:28;20.80;52.10
65038;DHT22;51605;47.040;15.294;2024-02-15T00:39:53;20.80;52.10
65038;DHT22;51605;47.040;15.294;2024-02-15T00:42:19;20.80;52.10
65038;DHT22;51605;47.040;15.294;2024-02-15T00:44:45;20.80;52.10
65038;DHT22;51605;47.040;15.294;2024-02-15T00:47:10;20.80;52.10
65038;DHT22;51605;47.040;15.294;2024-02-15T00:49:37;20.80;52.10
65038;DHT22;51605;47.040;15.294;2024-02-15T00:52:03;20.80;52.10
65038;DHT22;51605;47.040;15.294;2024-02-15T00:54:29;20.80;52.10
65038;DHT22;51605;47.040;15.294;2024-02-15T00:56:54;20.80;52.10
65038;DHT22;51605;47.040;15.294;2024-02-15T00:59:20;20.80;52.10
65038;DHT22;51605;47.040;15.294;2024-02-15T01:01:46;20.80;52.10
65038;DHT22;51605;47.040;15.294;2024-02-15T01:04:13;20.80;52.10
65038;DHT22;51605;47.040;15.294;2024-02-15T01:06:39;20.80;52.10
65038;DHT22;51605;47.040;15.294;2024-02-15T01:09:04;20.80;52.10
65038;DHT22;51605;47.040;15.294;2024-02-15T01:11:31;20.80;52.10
65038;DHT22;51605;47.040;15.294;2024-02-15T01:14:01;20.80;52.10
65038;DHT22;51605;47.040;15.294;2024-02-15T01:16:26;20.80;52.10
65038;DHT22;51605;47.040;15.294;2024-02-15T01:18:52;20.80;52.10
65038;DHT22;51605;47.040;15.294;2024-02-15T01:21:17;20.80;52.10
65038;DHT22;51605;47.040;15.294;2024-02-15T01:23:44;20.80;52.10
65038;DHT22;51605;47.040;15.294;2024-02-15T01:26:12;20.80;52.10
65038;DHT22;51605;47.040;15.294;2024-02-15T01:28:39;20.80;52.10
65038;DHT22;51605;47.040;15.294;2024-02-15T01:31:08;20.80;52.10
65038;DHT22;51605;47.040;15.294;2024-02-15T01:33:36;20.80;52.10
65038;DHT22;51605;47.040;15.294;2024-02-15T01:36:03;20.80;52.10
65038;DHT22;51605;47.040;15.294;2024-02-15T01:38:28;20.80;52.10
65038;DHT22;51605;47.040;15.294;2024-02-15T01:40:54;20.80;52.10
65038;DHT22;51605;47.040;15.294;2024-02-15T01:43:20;20.80;52.10
65038;DHT22;51605;47.040;15.294;2024-02-15T01:45:45;20.80;52.10
65038;DHT22;51605;47.040;15.294;2024-02-15T01:48:13;20.80;52.10
65038;DHT22;51605;47.040;15.294;2024-02-15T01:50:40;20.80;52.10
65038;DHT22;51605;47.040;15.294;2024-02-15T01:53:07;20.80;52.10
65038;DHT22;51605;47.040;15.294;2024-02-15T01:55:34;20.80;52.10
65038;DHT22;51605;47.040;15.294;2024-02-15T01:58:01;20.80;52.10
65038;DHT22;51605;47.040;15.294;2024-02-15T02:00:27;20.80;52.10
65038;DHT22;51605;47.040;15.294;2024-02-15T02:02:53;20.80;52.10
65038;DHT22;51605;47.040;15.294;2024-02-15T02:05:19;20.80;52.10
65038;DHT22;51605;47.040;15.294;2024-02-15T02:07:45;20.80;52.10
65038;DHT22;51605;47.040;15.294;2024-02-15T02:10:11;20.80;52.10
65038;DHT22;51605;47.040;15.294;2024-02-15T02:12:38;20.80;52.10
65038;DHT22;51605;47.040;15.294;2024-02-15T02:15:06;20.80;52.10
65038;DHT22;51605;47.040;15.294;2024-02-15T02:17:33;20.80;52.20
65038;DHT22;51605;47.040;15.294;2024-02-15T02:19:59;20.70;52.10
65038;DHT22;51605;47.040;15.294;2024-02-15T02:22:25;20.80;52.10
65038;DHT22;51605;47.040;15.294;2024-02-15T02:27:29;20.80;52.20
65038;DHT22;51605;47.040;15.294;2024-02-15T02:29:56;20.80;52.10
65038;DHT22;51605;47.040;15.294;2024-02-15T02:32:24;20.80;52.10
65038;DHT22;51605;47.040;15.294;2024-02-15T02:34:49;20.80;52.10
65038;DHT22;51605;47.040;15.294;2024-02-15T02:37:15;20.80;52.10
65038;DHT22;51605;47.040;15.294;2024-02-15T02:39:42;20.70;52.00
65038;DHT22;51605;47.040;15.294;2024-02-15T02:42:08;20.80;52.10
65038;DHT22;51605;47.040;15.294;2024-02-15T02:44:33;20.80;52.10
65038;DHT22;51605;47.040;15.294;2024-02-15T02:47:00;20.80;52.10
65038;DHT22;51605;47.040;15.294;2024-02-15T02:49:25;20.80;52.00
65038;DHT22;51605;47.040;15.294;2024-02-15T02:51:51;20.80;52.00
65038;DHT22;51605;47.040;15.294;2024-02-15T02:54:17;20.80;52.00
65038;DHT22;51605;47.040;15.294;2024-02-15T02:56:43;20.80;52.10
65038;DHT22;51605;47.040;15.294;2024-02-15T02:59:10;20.80;52.10
65038;DHT22;51605;47.040;15.294;2024-02-15T03:01:36;20.80;52.10
65038;DHT22;51605;47.040;15.294;2024-02-15T03:04:02;20.80;52.10
65038;DHT22;51605;47.040;15.294;2024-02-15T03:06:28;20.80;52.10
65038;DHT22;51605;47.040;15.294;2024-02-15T03:08:53;20.80;52.10
65038;DHT22;51605;47.040;15.294;2024-02-15T03:11:23;20.70;52.00
65038;DHT22;51605;47.040;15.294;2024-02-15T03:13:49;20.80;52.10
65038;DHT22;51605;47.040;15.294;2024-02-15T03:16:14;20.80;52.10
65038;DHT22;51605;47.040;15.294;2024-02-15T03:18:42;20.80;52.10
65038;DHT22;51605;47.040;15.294;2024-02-15T03:21:08;20.80;52.00
65038;DHT22;51605;47.040;15.294;2024-02-15T03:23:37;20.80;52.00
65038;DHT22;51605;47.040;15.294;2024-02-15T03:26:03;20.80;52.10
65038;DHT22;51605;47.040;15.294;2024-02-15T03:28:31;20.80;52.10
65038;DHT22;51605;47.040;15.294;2024-02-15T03:30:58;20.80;52.10
65038;DHT22;51605;47.040;15.294;2024-02-15T03:33:26;20.80;52.10
65038;DHT22;51605;47.040;15.294;2024-02-15T03:35:58;20.80;52.10
65038;DHT22;51605;47.040;15.294;2024-02-15T03:38:29;20.80;52.10
65038;DHT22;51605;47.040;15.294;2024-02-15T03:40:55;20.80;52.00
65038;DHT22;51605;47.040;15.294;2024-02-15T03:43:21;20.80;52.00
65038;DHT22;51605;47.040;15.294;2024-02-15T03:45:49;20.70;51.90
65038;DHT22;51605;47.040;15.294;2024-02-15T03:48:14;20.80;52.10
65038;DHT22;51605;47.040;15.294;2024-02-15T03:50:41;20.80;52.10
65038;DHT22;51605;47.040;15.294;2024-02-15T03:53:09;20.70;52.00
65038;DHT22;51605;47.040;15.294;2024-02-15T03:55:34;20.70;52.00
65038;DHT22;51605;47.040;15.294;2024-02-15T03:58:01;20.70;52.00
65038;DHT22;51605;47.040;15.294;2024-02-15T04:00:27;20.80;52.10
65038;DHT22;51605;47.040;15.294;2024-02-15T04:02:53;20.80;52.00
65038;DHT22;51605;47.040;15.294;2024-02-15T04:05:19;20.80;52.00
65038;DHT22;51605;47.040;15.294;2024-02-15T04:07:47;20.80;52.00
65038;DHT22;51605;47.040;15.294;2024-02-15T04:10:13;20.80;52.00
65038;DHT22;51605;47.040;15.294;2024-02-15T04:12:39;20.80;52.00
65038;DHT22;51605;47.040;15.294;2024-02-15T04:15:07;20.80;52.10
65038;DHT22;51605;47.040;15.294;2024-02-15T04:17:37;20.80;52.00
65038;DHT22;51605;47.040;15.294;2024-02-15T04:20:04;20.80;52.00
65038;DHT22;51605;47.040;15.294;2024-02-15T04:22:34;20.80;52.00
65038;DHT22;51605;47.040;15.294;2024-02-15T04:25:07;20.80;52.10
65038;DHT22;51605;47.040;15.294;2024-02-15T04:27:33;20.80;52.10
65038;DHT22;51605;47.040;15.294;2024-02-15T04:29:59;20.70;52.00
65038;DHT22;51605;47.040;15.294;2024-02-15T04:32:25;20.80;52.00
65038;DHT22;51605;47.040;15.294;2024-02-15T04:34:50;20.80;52.10
65038;DHT22;51605;47.040;15.294;2024-02-15T04:37:17;20.70;52.00
65038;DHT22;51605;47.040;15.294;2024-02-15T04:39:43;20.80;52.00
65038;DHT22;51605;47.040;15.294;2024-02-15T04:42:09;20.80;52.00
65038;DHT22;51605;47.040;15.294;2024-02-15T04:44:39;20.80;52.00
65038;DHT22;51605;47.040;15.294;2024-02-15T04:47:05;20.70;52.00
65038;DHT22;51605;47.040;15.294;2024-02-15T04:49:32;20.80;52.10
65038;DHT22;51605;47.040;15.294;2024-02-15T04:51:58;20.70;52.00
65038;DHT22;51605;47.040;15.294;2024-02-15T04:54:24;20.70;52.10
65038;DHT22;51605;47.040;15.294;2024-02-15T04:56:49;20.80;52.10
65038;DHT22;51605;47.040;15.294;2024-02-15T04:59:20;20.80;52.10
65038;DHT22;51605;47.040;15.294;2024-02-15T05:01:46;20.80;52.10
65038;DHT22;51605;47.040;15.294;2024-02-15T05:04:12;20.80;52.10
65038;DHT22;51605;47.040;15.294;2024-02-15T05:06:39;20.80;53.00
65038;DHT22;51605;47.040;15.294;2024-02-15T05:09:05;20.80;52.10
65038;DHT22;51605;47.040;15.294;2024-02-15T05:11:36;20.80;52.10
65038;DHT22;51605;47.040;15.294;2024-02-15T05:14:03;20.80;52.10
65038;DHT22;51605;47.040;15.294;2024-02-15T05:16:33;20.80;52.80
65038;DHT22;51605;47.040;15.294;2024-02-15T05:18:59;20.80;52.10
65038;DHT22;51605;47.040;15.294;2024-02-15T05:21:24;20.80;52.10
65038;DHT22;51605;47.040;15.294;2024-02-15T05:23:50;20.80;52.00
65038;DHT22;51605;47.040;15.294;2024-02-15T05:26:17;20.80;52.00
65038;DHT22;51605;47.040;15.294;2024-02-15T05:28:51;20.80;52.00
65038;DHT22;51605;47.040;15.294;2024-02-15T05:31:18;20.80;51.90
65038;DHT22;51605;47.040;15.294;2024-02-15T05:33:49;20.80;51.90
65038;DHT22;51605;47.040;15.294;2024-02-15T05:36:16;20.80;51.90
65038;DHT22;51605;47.040;15.294;2024-02-15T05:38:46;20.80;51.90
65038;DHT22;51605;47.040;15.294;2024-02-15T05:41:12;20.80;51.90
65038;DHT22;51605;47.040;15.294;2024-02-15T05:43:39;20.80;52.00
65038;DHT22;51605;47.040;15.294;2024-02-15T05:46:07;20.80;52.00
65038;DHT22;51605;47.040;15.294;2024-02-15T05:48:36;20.80;51.90
65038;DHT22;51605;47.040;15.294;2024-02-15T05:51:07;20.70;51.90
65038;DHT22;51605;47.040;15.294;2024-02-15T05:53:33;20.80;52.00
65038;DHT22;51605;47.040;15.294;2024-02-15T05:56:04;20.80;52.00
65038;DHT22;51605;47.040;15.294;2024-02-15T05:58:31;20.80;52.00
65038;DHT22;51605;47.040;15.294;2024-02-15T06:00:57;20.80;52.00
65038;DHT22;51605;47.040;15.294;2024-02-15T06:03:28;20.80;52.00
65038;DHT22;51605;47.040;15.294;2024-02-15T06:05:54;20.80;52.00
65038;DHT22;51605;47.040;15.294;2024-02-15T06:08:24;20.80;52.00
65038;DHT22;51605;47.040;15.294;2024-02-15T06:10:50;20.80;52.00
65038;DHT22;51605;47.040;15.294;2024-02-15T06:13:16;20.80;52.00
65038;DHT22;51605;47.040;15.294;2024-02-15T06:15:41;20.80;51.90
65038;DHT22;51605;47.040;15.294;2024-02-15T06:18:07;20.80;51.90
65038;DHT22;51605;47.040;15.294;2024-02-15T06:20:36;20.80;51.90
65038;DHT22;51605;47.040;15.294;2024-02-15T06:23:02;20.80;51.90
65038;DHT22;51605;47.040;15.294;2024-02-15T06:25:33;20.80;51.90
65038;DHT22;51605;47.040;15.294;2024-02-15T06:27:59;20.80;51.90
65038;DHT22;51605;47.040;15.294;2024-02-15T06:30:28;20.80;52.00
65038;DHT22;51605;47.040;15.294;2024-02-15T06:33:12;20.80;52.00
65038;DHT22;51605;47.040;15.294;2024-02-15T06:35:56;20.80;52.00
65038;DHT22;51605;47.040;15.294;2024-02-15T06:38:41;20.80;52.10
65038;DHT22;51605;47.040;15.294;2024-02-15T06:41:25;20.70;51.90
65038;DHT22;51605;47.040;15.294;2024-02-15T06:43:51;20.70;51.90
65038;DHT22;51605;47.040;15.294;2024-02-15T06:46:17;20.80;52.10
65038;DHT22;51605;47.040;15.294;2024-02-15T06:48:44;20.80;52.10
65038;DHT22;51605;47.040;15.294;2024-02-15T06:51:13;20.80;52.00
65038;DHT22;51605;47.040;15.294;2024-02-15T06:53:40;20.80;52.10
65038;DHT22;51605;47.040;15.294;2024-02-15T06:56:09;20.80;52.10
65038;DHT22;51605;47.040;15.294;2024-02-15T06:58:36;20.80;52.00
65038;DHT22;51605;47.040;15.294;2024-02-15T07:01:01;20.80;52.10
65038;DHT22;51605;47.040;15.294;2024-02-15T07:03:28;20.80;52.10
65038;DHT22;51605;47.040;15.294;2024-02-15T07:05:55;20.70;52.00
65038;DHT22;51605;47.040;15.294;2024-02-15T07:08:21;20.70;51.90
65038;DHT22;51605;47.040;15.294;2024-02-15T07:10:48;20.80;51.90
65038;DHT22;51605;47.040;15.294;2024-02-15T07:13:15;20.80;51.90
65038;DHT22;51605;47.040;15.294;2024-02-15T07:15:41;20.80;51.90
65038;DHT22;51605;47.040;15.294;2024-02-15T07:18:07;20.80;51.90
65038;DHT22;51605;47.040;15.294;2024-02-15T07:20:33;20.80;52.00
65038;DHT22;51605;47.040;15.294;2024-02-15T07:22:59;20.80;52.00
65038;DHT22;51605;47.040;15.294;2024-02-15T07:25:25;20.80;52.10
65038;DHT22;51605;47.040;15.294;2024-02-15T07:27:51;20.80;52.10
65038;DHT22;51605;47.040;15.294;2024-02-15T07:30:18;20.70;52.10
65038;DHT22;51605;47.040;15.294;2024-02-15T07:32:43;20.70;52.10
65038;DHT22;51605;47.040;15.294;2024-02-15T07:35:09;20.80;52.10
65038;DHT22;51605;47.040;15.294;2024-02-15T07:37:35;20.70;52.00
65038;DHT22;51605;47.040;15.294;2024-02-15T07:40:01;20.70;52.00
65038;DHT22;51605;47.040;15.294;2024-02-15T07:42:29;20.70;52.00
65038;DHT22;51605;47.040;15.294;2024-02-15T07:44:55;20.80;52.00
65038;DHT22;51605;47.040;15.294;2024-02-15T07:47:20;20.70;51.90
65038;DHT22;51605;47.040;15.294;2024-02-15T07:49:50;20.80;52.00
65038;DHT22;51605;47.040;15.294;2024-02-15T07:52:15;20.80;51.90
65038;DHT22;51605;47.040;15.294;2024-02-15T07:54:41;20.70;51.90
65038;DHT22;51605;47.040;15.294;2024-02-15T07:57:07;20.80;52.10
65038;DHT22;51605;47.040;15.294;2024-02-15T07:59:34;20.80;53.00
65038;DHT22;51605;47.040;15.294;2024-02-15T08:02:01;20.80;53.10
65038;DHT22;51605;47.040;15.294;2024-02-15T08:04:27;20.80;52.70
65038;DHT22;51605;47.040;15.294;2024-02-15T08:06:54;20.80;52.30
65038;DHT22;51605;47.040;15.294;2024-02-15T08:09:20;20.80;52.10
65038;DHT22;51605;47.040;15.294;2024-02-15T08:11:49;20.80;51.90
65038;DHT22;51605;47.040;15.294;2024-02-15T08:14:16;20.80;52.00
65038;DHT22;51605;47.040;15.294;2024-02-15T08:16:42;20.80;51.90
65038;DHT22;51605;47.040;15.294;2024-02-15T08:19:08;20.80;51.90
65038;DHT22;51605;47.040;15.294;2024-02-15T08:21:34;20.80;51.90
65038;DHT22;51605;47.040;15.294;2024-02-15T08:24:03;20.80;52.00
65038;DHT22;51605;47.040;15.294;2024-02-15T08:26:38;20.80;52.10
65038;DHT22;51605;47.040;15.294;2024-02-15T08:29:05;20.80;52.10
65038;DHT22;51605;47.040;15.294;2024-02-15T08:31:35;20.80;52.00
65038;DHT22;51605;47.040;15.294;2024-02-15T08:34:02;20.80;52.10
65038;DHT22;51605;47.040;15.294;2024-02-15T08:36:29;20.70;52.00
65038;DHT22;51605;47.040;15.294;2024-02-15T08:38:56;20.80;52.10
65038;DHT22;51605;47.040;15.294;2024-02-15T08:41:21;20.80;52.10
65038;DHT22;51605;47.040;15.294;2024-02-15T08:43:52;20.80;52.10
65038;DHT22;51605;47.040;15.294;2024-02-15T08:46:18;20.70;52.00
65038;DHT22;51605;47.040;15.294;2024-02-15T08:48:43;20.80;52.10
65038;DHT22;51605;47.040;15.294;2024-02-15T08:51:10;20.80;52.10
65038;DHT22;51605;47.040;15.294;2024-02-15T08:53:35;20.80;52.10
65038;DHT22;51605;47.040;15.294;2024-02-15T08:56:04;20.70;52.10
65038;DHT22;51605;47.040;15.294;2024-02-15T08:58:30;20.80;52.10
65038;DHT22;51605;47.040;15.294;2024-02-15T09:00:57;20.80;52.10
65038;DHT22;51605;47.040;15.294;2024-02-15T09:03:22;20.80;52.20
65038;DHT22;51605;47.040;15.294;2024-02-15T09:05:48;20.80;52.20
65038;DHT22;51605;47.040;15.294;2024-02-15T09:08:14;20.70;52.20
65038;DHT22;51605;47.040;15.294;2024-02-15T09:10:45;20.70;52.20
65038;DHT22;51605;47.040;15.294;2024-02-15T09:13:10;20.70;52.20
65038;DHT22;51605;47.040;15.294;2024-02-15T09:15:36;20.80;52.30
65038;DHT22;51605;47.040;15.294;2024-02-15T09:18:02;20.70;52.20
65038;DHT22;51605;47.040;15.294;2024-02-15T09:20:28;20.70;52.20
65038;DHT22;51605;47.040;15.294;2024-02-15T09:22:55;20.80;52.30
65038;DHT22;51605;47.040;15.294;2024-02-15T09:25:22;20.70;52.20
65038;DHT22;51605;47.040;15.294;2024-02-15T09:27:51;20.70;52.20
65038;DHT22;51605;47.040;15.294;2024-02-15T09:30:19;20.70;52.20
65038;DHT22;51605;47.040;15.294;2024-02-15T09:32:45;20.70;52.20
65038;DHT22;51605;47.040;15.294;2024-02-15T09:35:11;20.70;52.20
65038;DHT22;51605;47.040;15.294;2024-02-15T09:37:48;20.70;52.20
65038;DHT22;51605;47.040;15.294;2024-02-15T09:40:18;20.70;52.30
65038;DHT22;51605;47.040;15.294;2024-02-15T09:42:45;20.70;52.20
65038;DHT22;51605;47.040;15.294;2024-02-15T09:45:12;20.70;52.30
65038;DHT22;51605;47.040;15.294;2024-02-15T09:47:38;20.70;52.40
65038;DHT22;51605;47.040;15.294;2024-02-15T09:50:09;20.70;52.40
65038;DHT22;51605;47.040;15.294;2024-02-15T09:52:38;20.70;52.40
65038;DHT22;51605;47.040;15.294;2024-02-15T09:55:07;20.70;52.30
65038;DHT22;51605;47.040;15.294;2024-02-15T09:57:45;20.70;52.30
65038;DHT22;51605;47.040;15.294;2024-02-15T10:00:14;20.70;52.40
65038;DHT22;51605;47.040;15.294;2024-02-15T10:02:41;20.70;52.30
65038;DHT22;51605;47.040;15.294;2024-02-15T10:05:10;20.70;52.40
65038;DHT22;51605;47.040;15.294;2024-02-15T10:07:40;20.70;52.60
65038;DHT22;51605;47.040;15.294;2024-02-15T10:10:19;20.70;52.40
65038;DHT22;51605;47.040;15.294;2024-02-15T10:12:52;20.70;52.40
65038;DHT22;51605;47.040;15.294;2024-02-15T10:15:37;20.70;52.50
65038;DHT22;51605;47.040;15.294;2024-02-15T10:18:07;20.70;52.50
65038;DHT22;51605;47.040;15.294;2024-02-15T10:20:34;20.70;52.50
65038;DHT22;51605;47.040;15.294;2024-02-15T10:25:34;20.70;52.50
65038;DHT22;51605;47.040;15.294;2024-02-15T10:28:07;20.70;52.40
65038;DHT22;51605;47.040;15.294;2024-02-15T10:30:37;20.70;52.40
65038;DHT22;51605;47.040;15.294;2024-02-15T10:33:03;20.70;52.40
65038;DHT22;51605;47.040;15.294;2024-02-15T10:35:31;20.70;52.40
65038;DHT22;51605;47.040;15.294;2024-02-15T10:38:11;20.70;52.40
65038;DHT22;51605;47.040;15.294;2024-02-15T10:40:37;20.70;52.50
65038;DHT22;51605;47.040;15.294;2024-02-15T10:43:05;20.70;52.40
65038;DHT22;51605;47.040;15.294;2024-02-15T10:45:32;20.70;52.40
65038;DHT22;51605;47.040;15.294;2024-02-15T10:47:58;20.70;52.40
65038;DHT22;51605;47.040;15.294;2024-02-15T10:50:24;20.70;52.30
65038;DHT22;51605;47.040;15.294;2024-02-15T10:52:59;20.70;52.30
65038;DHT22;51605;47.040;15.294;2024-02-15T10:58:19;20.70;52.30
65038;DHT22;51605;47.040;15.294;2024-02-15T11:00:46;20.70;52.30
65038;DHT22;51605;47.040;15.294;2024-02-15T11:03:19;20.70;52.40
65038;DHT22;51605;47.040;15.294;2024-02-15T11:05:46;20.70;52.50
65038;DHT22;51605;47.040;15.294;2024-02-15T11:08:12;20.70;52.40
65038;DHT22;51605;47.040;15.294;2024-02-15T11:10:39;20.70;52.40
65038;DHT22;51605;47.040;15.294;2024-02-15T11:13:10;20.70;52.50
65038;DHT22;51605;47.040;15.294;2024-02-15T11:18:05;20.70;52.50
65038;DHT22;51605;47.040;15.294;2024-02-15T11:23:02;20.70;52.40
65038;DHT22;51605;47.040;15.294;2024-02-15T11:25:35;20.70;52.50
65038;DHT22;51605;47.040;15.294;2024-02-15T11:28:35;20.70;52.40
65038;DHT22;51605;47.040;15.294;2024-02-15T11:31:02;20.70;52.60
65038;DHT22;51605;47.040;15.294;2024-02-15T11:33:33;20.70;52.30
65038;DHT22;51605;47.040;15.294;2024-02-15T11:36:06;20.70;52.40
65038;DHT22;51605;47.040;15.294;2024-02-15T11:38:37;20.70;52.30
65038;DHT22;51605;47.040;15.294;2024-02-15T11:41:04;20.70;52.20
65038;DHT22;51605;47.040;15.294;2024-02-15T11:46:09;20.70;52.30
65038;DHT22;51605;47.040;15.294;2024-02-15T11:48:38;20.70;52.30
65038;DHT22;51605;47.040;15.294;2024-02-15T11:51:05;20.80;52.20
65038;DHT22;51605;47.040;15.294;2024-02-15T11:53:32;20.80;52.20
65038;DHT22;51605;47.040;15.294;2024-02-15T11:56:01;20.80;52.30
65038;DHT22;51605;47.040;15.294;2024-02-15T11:58:30;20.70;52.30
65038;DHT22;51605;47.040;15.294;2024-02-15T12:01:11;20.80;52.30
65038;DHT22;51605;47.040;15.294;2024-02-15T12:03:56;20.80;52.30
65038;DHT22;51605;47.040;15.294;2024-02-15T12:06:40;20.70;52.20
65038;DHT22;51605;47.040;15.294;2024-02-15T12:09:24;20.80;52.30
65038;DHT22;51605;47.040;15.294;2024-02-15T12:12:11;20.80;52.30
65038;DHT22;51605;47.040;15.294;2024-02-15T12:14:59;20.70;52.20
65038;DHT22;51605;47.040;15.294;2024-02-15T12:17:43;20.70;52.30
65038;DHT22;51605;47.040;15.294;2024-02-15T12:20:28;20.70;52.30
65038;DHT22;51605;47.040;15.294;2024-02-15T12:22:54;20.80;52.30
65038;DHT22;51605;47.040;15.294;2024-02-15T12:25:21;20.70;52.20
65038;DHT22;51605;47.040;15.294;2024-02-15T12:27:59;20.70;52.30
65038;DHT22;51605;47.040;15.294;2024-02-15T12:30:25;20.70;52.40
65038;DHT22;51605;47.040;15.294;2024-02-15T12:33:09;20.70;52.40
65038;DHT22;51605;47.040;15.294;2024-02-15T12:35:44;20.70;52.40
65038;DHT22;51605;47.040;15.294;2024-02-15T12:38:12;20.70;52.40
65038;DHT22;51605;47.040;15.294;2024-02-15T12:40:41;20.70;52.40
65038;DHT22;51605;47.040;15.294;2024-02-15T12:43:08;20.70;52.40
65038;DHT22;51605;47.040;15.294;2024-02-15T12:45:39;20.70;52.40
65038;DHT22;51605;47.040;15.294;2024-02-15T12:48:06;20.70;52.40
65038;DHT22;51605;47.040;15.294;2024-02-15T12:50:32;20.70;52.40
65038;DHT22;51605;47.040;15.294;2024-02-15T12:52:58;20.70;52.40
65038;DHT22;51605;47.040;15.294;2024-02-15T12:55:35;20.70;52.40
65038;DHT22;51605;47.040;15.294;2024-02-15T12:58:03;20.70;52.40
65038;DHT22;51605;47.040;15.294;2024-02-15T13:00:36;20.70;52.40
65038;DHT22;51605;47.040;15.294;2024-02-15T13:03:05;20.70;52.40
65038;DHT22;51605;47.040;15.294;2024-02-15T13:05:34;20.70;52.50
65038;DHT22;51605;47.040;15.294;2024-02-15T13:08:00;20.70;52.50
65038;DHT22;51605;47.040;15.294;2024-02-15T13:10:32;20.70;52.50
65038;DHT22;51605;47.040;15.294;2024-02-15T13:12:57;20.70;52.50
65038;DHT22;51605;47.040;15.294;2024-02-15T13:15:24;20.70;52.50
65038;DHT22;51605;47.040;15.294;2024-02-15T13:17:56;20.70;52.50
65038;DHT22;51605;47.040;15.294;2024-02-15T13:20:25;20.70;52.50
65038;DHT22;51605;47.040;15.294;2024-02-15T13:23:00;20.70;52.40
65038;DHT22;51605;47.040;15.294;2024-02-15T13:25:28;20.70;52.40
65038;DHT22;51605;47.040;15.294;2024-02-15T13:27:55;20.70;52.40
65038;DHT22;51605;47.040;15.294;2024-02-15T13:30:21;20.70;52.40
65038;DHT22;51605;47.040;15.294;2024-02-15T13:32:49;20.80;52.40
65038;DHT22;51605;47.040;15.294;2024-02-15T13:35:17;20.70;52.30
65038;DHT22;51605;47.040;15.294;2024-02-15T13:37:52;20.70;52.40
65038;DHT22;51605;47.040;15.294;2024-02-15T13:40:18;20.70;52.30
65038;DHT22;51605;47.040;15.294;2024-02-15T13:42:47;20.70;52.30
65038;DHT22;51605;47.040;15.294;2024-02-15T13:45:23;20.70;52.40
65038;DHT22;51605;47.040;15.294;2024-02-15T13:47:50;20.70;52.40
65038;DHT22;51605;47.040;15.294;2024-02-15T13:50:17;20.70;52.30
65038;DHT22;51605;47.040;15.294;2024-02-15T13:52:46;20.70;52.40
65038;DHT22;51605;47.040;15.294;2024-02-15T13:55:16;20.70;52.30
65038;DHT22;51605;47.040;15.294;2024-02-15T13:57:44;20.70;52.30
65038;DHT22;51605;47.040;15.294;2024-02-15T14:00:11;20.70;53.30
65038;DHT22;51605;47.040;15.294;2024-02-15T14:05:13;20.70;52.30
65038;DHT22;51605;47.040;15.294;2024-02-15T14:07:39;20.70;52.30
65038;DHT22;51605;47.040;15.294;2024-02-15T14:10:05;20.80;52.30
65038;DHT22;51605;47.040;15.294;2024-02-15T14:12:31;20.70;52.30
65038;DHT22;51605;47.040;15.294;2024-02-15T14:14:57;20.70;52.30
65038;DHT22;51605;47.040;15.294;2024-02-15T14:17:23;20.80;52.40
65038;DHT22;51605;47.040;15.294;2024-02-15T14:19:49;20.80;52.50
65038;DHT22;51605;47.040;15.294;2024-02-15T14:22:15;20.70;52.40
65038;DHT22;51605;47.040;15.294;2024-02-15T14:24:43;20.70;52.40
65038;DHT22;51605;47.040;15.294;2024-02-15T14:27:10;20.70;52.40
65038;DHT22;51605;47.040;15.294;2024-02-15T14:29:37;20.70;52.30
65038;DHT22;51605;47.040;15.294;2024-02-15T14:32:11;20.70;52.30
65038;DHT22;51605;47.040;15.294;2024-02-15T14:34:55;20.70;52.30
65038;DHT22;51605;47.040;15.294;2024-02-15T14:37:22;20.80;52.40
65038;DHT22;51605;47.040;15.294;2024-02-15T14:39:47;20.70;52.40
65038;DHT22;51605;47.040;15.294;2024-02-15T14:42:13;20.80;52.40
65038;DHT22;51605;47.040;15.294;2024-02-15T14:44:39;20.80;52.40
65038;DHT22;51605;47.040;15.294;2024-02-15T14:47:05;20.70;52.40
65038;DHT22;51605;47.040;15.294;2024-02-15T14:49:31;20.70;52.40
65038;DHT22;51605;47.040;15.294;2024-02-15T14:51:57;20.70;52.30
65038;DHT22;51605;47.040;15.294;2024-02-15T14:54:22;20.80;52.50
65038;DHT22;51605;47.040;15.294;2024-02-15T14:56:48;20.80;52.50
65038;DHT22;51605;47.040;15.294;2024-02-15T14:59:13;20.80;52.40
65038;DHT22;51605;47.040;15.294;2024-02-15T15:01:40;20.80;52.50
65038;DHT22;51605;47.040;15.294;2024-02-15T15:04:06;20.80;52.40
65038;DHT22;51605;47.040;15.294;2024-02-15T15:06:33;20.80;52.40
65038;DHT22;51605;47.040;15.294;2024-02-15T15:09:17;20.70;52.30
65038;DHT22;51605;47.040;15.294;2024-02-15T15:12:01;20.70;52.20
65038;DHT22;51605;47.040;15.294;2024-02-15T15:14:45;20.80;52.40
65038;DHT22;51605;47.040;15.294;2024-02-15T15:17:11;20.80;52.50
65038;DHT22;51605;47.040;15.294;2024-02-15T15:19:42;20.70;52.70
65038;DHT22;51605;47.040;15.294;2024-02-15T15:22:08;20.70;52.50
65038;DHT22;51605;47.040;15.294;2024-02-15T15:24:33;20.70;52.50
65038;DHT22;51605;47.040;15.294;2024-02-15T15:26:59;20.70;52.50
65038;DHT22;51605;47.040;15.294;2024-02-15T15:29:25;20.70;52.50
65038;DHT22;51605;47.040;15.294;2024-02-15T15:31:51;20.70;52.50
65038;DHT22;51605;47.040;15.294;2024-02-15T15:34:17;20.70;52.60
65038;DHT22;51605;47.040;15.294;2024-02-15T15:36:45;20.70;52.60
65038;DHT22;51605;47.040;15.294;2024-02-15T15:39:12;20.70;52.60